Latest Weather Observations for Strathalbyn

IDS60801

Issued at 11:05 am CST Tuesday 2 September 2014 (issued every 30 minutes, with the page automatically refreshed every 10 minutes)

About weather observations | Map of weather stations | Latest weather observations for SA | Other Formats
Station Details ID: 024580 Name: STRATHALBYN RACECOURSE Lat: -35.28 Lon: 138.89 Height: 58.0 m
Data from the previous 72 hours. | See also: Recent months at Strathalbyn
Date/Time
CST
Temp
°C
App
Temp
°C
Dew
Point
Rel
Hum
%
Delta-T
°C
Wind Press
QNH
hPa
Press
MSL
hPa
Rain
since 9 am
mm
Dir
 
Spd
km/h
Gust
km/h
Spd
kts
Gust
kts
02/11:00am 12.4 6.7 6.9 69 2.6 S 26 35 14 19 1024.9 - 0.0
02/10:35am 12.7 6.6 6.7 67 2.9 S 28 46 15 25 1024.6 - 0.0
02/10:30am 12.2 6.5 6.5 68 2.7 S 26 41 14 22 1024.7 - 0.0
02/10:00am 12.4 7.1 6.7 68 2.7 S 24 33 13 18 1024.6 - 0.0
02/09:30am 12.8 8.5 7.7 71 2.5 S 20 28 11 15 1024.6 - 0.0
02/09:00am 11.9 7.4 7.0 72 2.3 S 20 26 11 14 1024.6 1024.6 2.0
02/08:30am 10.9 8.1 7.0 77 1.9 SW 11 15 6 8 1024.6 - 2.0
02/08:00am 9.7 6.4 6.2 79 1.6 SW 13 19 7 10 1024.3 - 2.0
02/07:30am 8.9 5.5 5.8 81 1.4 WSW 13 20 7 11 1023.6 - 2.0
02/07:00am 8.3 5.3 5.8 84 1.1 SW 11 19 6 10 1023.2 - 2.0
02/06:30am 7.8 3.8 5.1 83 1.2 W 15 20 8 11 1022.6 - 1.2
02/06:00am 7.6 3.6 4.7 82 1.3 WSW 15 19 8 10 1022.1 1022.1 1.2
02/05:30am 7.8 3.4 4.6 80 1.4 W 17 22 9 12 1021.6 - 1.0
02/05:00am 8.2 3.8 4.8 79 1.5 WSW 17 28 9 15 1021.3 - 1.0
02/04:30am 7.9 3.9 4.7 80 1.4 WSW 15 20 8 11 1020.8 - 1.0
02/04:00am 7.7 3.3 4.7 81 1.3 SW 17 24 9 13 1020.4 - 0.8
02/03:30am 7.7 3.5 3.9 77 1.6 WSW 15 19 8 10 1019.9 - 0.4
02/03:00am 7.7 4.3 3.9 77 1.6 WSW 11 15 6 8 1019.9 1020.0 0.2
02/02:30am 8.2 3.1 3.9 74 1.9 WSW 20 30 11 16 1019.7 - 0.2
02/02:00am 8.4 3.1 3.1 69 2.3 W 20 26 11 14 1019.5 - 0.2
02/01:30am 8.4 3.3 3.1 69 2.3 W 19 26 10 14 1019.3 - 0.2
02/01:00am 8.6 3.4 3.6 71 2.2 WSW 20 32 11 17 1019.1 - 0.2
02/12:30am 8.6 3.6 3.8 72 2.1 W 19 28 10 15 1019.0 - 0.2
02/12:00am 8.7 3.6 4.1 73 2.0 W 20 26 11 14 1018.9 1019.0 0.2
 
Date/Time
CST
Temp
°C
App
Temp
°C
Dew
Point
Rel
Hum
%
Delta-T
°C
Wind Press
QNH
hPa
Press
MSL
hPa
Rain
since 9 am
mm
Dir
 
Spd
km/h
Gust
km/h
Spd
kts
Gust
kts
01/11:30pm 9.3 4.2 4.3 71 2.2 W 20 30 11 16 1018.6 - 0.2
01/11:00pm 9.3 4.2 3.9 69 2.4 W 20 28 11 15 1018.5 - 0.2
01/10:30pm 9.5 4.3 3.7 67 2.5 WSW 20 30 11 16 1018.1 - 0.2
01/10:00pm 9.5 4.3 3.5 66 2.6 WSW 20 30 11 16 1018.1 - 0.2
01/09:30pm 9.3 4.4 4.9 74 2.0 WSW 20 32 11 17 1018.0 - 0.2
01/09:00pm 9.0 5.1 5.2 77 1.7 WSW 15 22 8 12 1017.6 1017.7 0.2
01/08:30pm 9.6 5.7 5.2 74 2.0 WSW 15 24 8 13 1017.1 - 0.2
01/08:00pm 9.6 5.8 5.8 77 1.7 WSW 15 20 8 11 1017.0 - 0.2
01/07:30pm 9.7 6.3 6.1 78 1.7 WSW 13 20 7 11 1016.5 - 0.2
01/07:00pm 9.9 7.9 6.2 78 1.7 WSW 6 11 3 6 1016.1 - 0.2
01/06:30pm 10.8 6.7 6.4 74 2.1 WSW 17 26 9 14 1015.6 - 0.2
01/06:00pm 11.5 7.3 5.8 68 2.7 W 17 28 9 15 1015.2 1015.3 0.0
01/05:30pm 12.2 7.4 5.8 65 3.0 W 20 32 11 17 1014.7 - 0.0
01/05:00pm 12.1 9.0 7.2 72 2.4 SW 13 17 7 9 1014.5 - 0.0
01/04:30pm 11.8 8.4 7.5 75 2.1 SSW 15 19 8 10 1014.2 - 0.0
01/04:00pm 11.8 5.3 6.7 71 2.4 SSW 30 37 16 20 1014.0 - 0.0
01/03:30pm 13.1 8.4 6.2 63 3.3 SSW 20 33 11 18 1013.6 - 0.0
01/03:00pm 13.6 10.4 6.9 64 3.3 SSW 13 17 7 9 1013.3 1013.3 0.0
01/02:30pm 13.0 8.8 8.1 72 2.4 SSW 20 30 11 16 1013.4 - 0.0
01/02:00pm 12.4 7.8 8.1 75 2.1 SW 22 33 12 18 1013.3 - 0.0
01/01:30pm 13.5 7.9 7.3 66 3.0 SSW 26 35 14 19 1012.9 - 0.0
01/01:00pm 14.1 9.7 7.6 65 3.2 S 20 26 11 14 1013.1 - 0.0
01/12:30pm 15.8 10.9 7.0 56 4.3 W 22 30 12 16 1013.2 - 0.0
01/12:00pm 15.2 8.6 6.2 55 4.4 W 30 41 16 22 1013.3 1013.3 0.0
01/11:35am 14.8 8.6 6.1 56 4.2 W 28 46 15 25 1013.4 - 0.0
01/11:30am 15.0 8.5 6.6 57 4.1 W 30 46 16 25 1013.4 - 0.0
01/11:00am 13.7 7.6 4.8 55 4.1 WSW 26 39 14 21 1013.4 - 0.0
01/10:30am 13.6 8.9 7.6 67 3.0 SW 22 32 12 17 1013.2 - 0.0
01/10:00am 13.9 9.2 7.9 67 3.0 WSW 22 35 12 19 1013.1 - 0.0
01/09:30am 12.5 8.5 8.4 76 2.0 W 19 28 10 15 1013.1 - 0.0
01/09:00am 11.7 9.6 8.2 79 1.7 W 9 15 5 8 1013.1 1013.1 2.8
01/08:30am 11.8 8.6 8.3 79 1.7 WSW 15 20 8 11 1012.6 - 2.8
01/08:00am 11.7 9.3 8.7 82 1.5 WSW 11 20 6 11 1012.5 - 2.8
01/07:30am 11.4 7.2 8.1 80 1.6 W 20 30 11 16 1012.4 - 2.8
01/07:00am 12.0 10.5 9.2 83 1.4 W 7 11 4 6 1011.9 - 2.6
01/06:30am 12.0 10.5 9.0 82 1.5 W 7 11 4 6 1011.6 - 2.6
01/06:00am 11.9 9.6 9.1 83 1.4 WNW 11 17 6 9 1011.3 1011.3 2.6
01/05:30am 11.8 9.5 9.0 83 1.4 WNW 11 15 6 8 1010.8 - 2.6
01/05:00am 11.8 9.5 9.0 83 1.4 W 11 15 6 8 1010.8 - 2.6
01/04:30am 11.8 9.1 8.8 82 1.5 W 13 17 7 9 1010.4 - 2.6
01/04:00am 11.9 9.2 8.9 82 1.5 W 13 19 7 10 1010.3 - 2.6
01/03:30am 11.8 8.7 8.8 82 1.5 W 15 26 8 14 1010.3 - 2.6
01/03:00am 11.8 9.1 9.0 83 1.4 W 13 20 7 11 1010.8 1010.8 2.2
01/02:30am 11.6 10.3 9.3 86 1.2 WSW 6 9 3 5 1010.7 - 1.8
01/02:00am 11.6 9.8 9.3 86 1.2 W 9 17 5 9 1011.0 - 1.4
01/01:30am 11.8 9.6 9.4 85 1.2 WSW 11 19 6 10 1011.3 - 0.4
01/01:00am 12.7 9.7 9.3 80 1.7 WSW 15 22 8 12 1011.2 - 0.2
01/12:30am 14.2 10.5 9.6 74 2.4 W 19 26 10 14 1011.2 - 0.0
01/12:00am 13.6 11.9 10.0 79 1.9 W 9 13 5 7 1010.6 1010.6 0.0
 
Date/Time
CST
Temp
°C
App
Temp
°C
Dew
Point
Rel
Hum
%
Delta-T
°C
Wind Press
QNH
hPa
Press
MSL
hPa
Rain
since 9 am
mm
Dir
 
Spd
km/h
Gust
km/h
Spd
kts
Gust
kts
31/11:30pm 13.5 11.1 10.1 80 1.8 WNW 13 19 7 10 1010.7 - 0.0
31/11:00pm 13.6 11.1 9.8 78 2.0 W 13 17 7 9 1010.5 - 0.0
31/10:30pm 13.9 11.7 9.5 75 2.3 WSW 11 13 6 7 1010.6 - 0.0
31/10:00pm 13.6 11.1 8.0 69 2.8 WNW 11 15 6 8 1010.8 - 0.0
31/09:30pm 14.4 10.3 6.0 57 4.0 WNW 17 22 9 12 1010.7 - 0.0
31/09:00pm 14.7 11.4 4.4 50 4.8 W 11 15 6 8 1010.1 1010.1 0.0
31/08:30pm 15.1 12.1 3.9 47 5.2 WNW 9 11 5 6 1009.8 - 0.0
31/08:00pm 17.0 12.9 2.2 37 6.7 W 13 20 7 11 1010.4 - 0.0
31/07:30pm 16.1 13.0 5.7 50 5.0 WNW 11 17 6 9 1010.4 - 0.0
31/07:00pm 16.2 13.0 5.2 48 5.3 WNW 11 15 6 8 1010.3 - 0.0
31/06:30pm 16.9 13.6 4.6 44 5.8 W 11 15 6 8 1009.9 - 0.0
31/06:00pm 19.0 14.8 4.0 37 7.2 NNE 15 19 8 10 1009.6 1009.6 0.0
31/05:30pm 19.9 15.8 2.3 31 8.2 N 13 20 7 11 1009.8 - 0.0
31/05:00pm 21.0 16.3 3.2 31 8.5 N 17 26 9 14 1009.7 - 0.0
31/04:30pm 21.6 16.0 3.3 30 8.8 NNW 22 33 12 18 1009.7 - 0.0
31/04:00pm 22.0 15.2 3.2 29 9.0 N 28 37 15 20 1009.3 - 0.0
31/03:30pm 21.8 15.9 3.9 31 8.7 N 24 33 13 18 1009.6 - 0.0
31/03:00pm 21.4 15.1 3.6 31 8.6 N 26 33 14 18 1009.8 1009.8 0.0
31/02:30pm 22.4 15.3 3.5 29 9.1 NNW 30 43 16 23 1010.1 - 0.0
31/02:00pm 22.9 16.9 3.4 28 9.4 NNW 24 33 13 18 1010.7 - 0.0
31/01:30pm 21.5 12.7 1.2 26 9.3 NW 37 50 20 27 1011.1 - 0.0
31/01:00pm 21.8 13.9 2.0 27 9.3 NW 33 50 18 27 1011.1 - 0.0
31/12:49pm 21.6 12.3 0.8 25 9.5 NW 39 59 21 32 1011.2 - 0.0
31/12:30pm 21.1 13.3 2.9 30 8.6 NW 33 50 18 27 1011.8 - 0.0
31/12:01pm 21.8 14.0 1.5 26 9.4 NNW 32 57 17 31 1012.5 - 0.0
31/12:00pm 21.8 14.3 1.5 26 9.4 NNW 30 46 16 25 1012.6 1012.6 0.0
31/11:56am 21.6 14.5 1.3 26 9.3 NNW 28 46 15 25 1012.7 - 0.0
31/11:30am 20.0 14.5 0.5 27 8.7 N 19 28 10 15 1013.2 - 0.0
31/11:00am 18.3 13.5 2.6 35 7.2 NNE 17 24 9 13 1013.5 - 0.0
31/10:30am 18.9 14.6 1.0 30 8.0 N 13 28 7 15 1014.2 - 0.0
31/10:00am 17.1 13.3 3.8 41 6.2 N 13 19 7 10 1014.3 - 0.0
31/09:30am 17.5 12.8 3.0 38 6.7 NNE 17 20 9 11 1014.4 - 0.0
31/09:00am 17.5 13.5 2.7 37 6.8 N 13 17 7 9 1014.5 1014.6 0.0
31/08:30am 15.5 13.1 5.1 50 4.9 NNW 7 9 4 5 1015.0 - 0.0
31/08:00am 14.4 10.8 5.2 54 4.3 N 13 17 7 9 1015.1 - 0.0
31/07:30am 11.8 8.1 4.3 60 3.4 N 13 17 7 9 1015.0 - 0.0
31/07:00am 10.9 7.4 3.7 61 3.2 NNW 11 13 6 7 1015.3 - 0.0
31/06:30am 10.7 8.0 3.7 62 3.1 NNW 7 11 4 6 1015.3 - 0.0
31/06:00am 11.0 7.6 3.8 61 3.2 NNW 11 13 6 7 1014.9 1015.0 0.0
31/05:30am 12.1 8.2 3.3 55 3.9 N 13 17 7 9 1014.8 - 0.0
31/05:00am 12.0 9.1 2.7 53 4.1 N 7 9 4 5 1014.8 - 0.0
31/04:30am 13.3 8.5 2.8 49 4.7 NNW 17 19 9 10 1014.6 - 0.0
31/04:00am 11.3 7.9 4.1 61 3.2 N 11 13 6 7 1014.4 - 0.0
31/03:30am 12.2 8.0 3.7 56 3.8 NW 15 17 8 9 1015.1 - 0.0
31/03:00am 11.9 8.1 3.7 57 3.7 NNW 13 13 7 7 1015.1 1015.2 0.0
31/02:30am 12.8 8.9 3.5 53 4.2 NNW 13 17 7 9 1015.7 - 0.0
31/02:00am 12.9 8.6 3.3 52 4.3 NNW 15 19 8 10 1015.8 - 0.0
31/01:30am 13.2 8.9 3.3 51 4.4 NNW 15 19 8 10 1016.1 - 0.0
31/01:00am 12.8 9.2 3.2 52 4.3 N 11 13 6 7 1016.2 - 0.0
31/12:30am 11.3 7.9 3.8 60 3.3 NNW 11 11 6 6 1016.4 - 0.0
31/12:00am 8.2 5.5 3.7 73 1.9 NNW 7 9 4 5 1016.8 1016.9 0.0
 
Date/Time
CST
Temp
°C
App
Temp
°C
Dew
Point
Rel
Hum
%
Delta-T
°C
Wind Press
QNH
hPa
Press
MSL
hPa
Rain
since 9 am
mm
Dir
 
Spd
km/h
Gust
km/h
Spd
kts
Gust
kts
30/11:30pm 10.2 7.2 4.1 66 2.7 N 9 11 5 6 1016.9 - 0.0
30/11:00pm 11.0 8.1 4.5 64 2.9 N 9 11 5 6 1017.3 - 0.0
30/10:30pm 10.4 7.4 4.3 66 2.7 NNW 9 11 5 6 1017.7 - 0.0
30/10:00pm 12.7 9.0 4.4 57 3.8 NNW 13 17 7 9 1018.0 - 0.0
30/09:30pm 11.8 8.5 4.5 61 3.3 N 11 13 6 7 1018.3 - 0.0
30/09:00pm 12.9 9.3 4.8 58 3.7 N 13 15 7 8 1018.4 1018.5 0.0
30/08:30pm 12.5 9.4 5.4 62 3.3 N 11 11 6 6 1018.6 - 0.0
30/08:00pm 13.2 10.0 5.1 58 3.8 N 11 13 6 7 1018.6 - 0.0
30/07:30pm 14.3 11.2 5.4 55 4.2 N 11 15 6 8 1018.6 - 0.0
30/07:00pm 13.6 10.6 6.0 60 3.6 N 11 13 6 7 1018.6 - 0.0
30/06:30pm 15.3 11.7 4.9 50 4.9 WNW 13 15 7 8 1018.8 - 0.0
30/06:00pm 17.3 13.5 3.9 41 6.3 WNW 13 15 7 8 1018.8 1018.9 0.0
30/05:30pm 18.5 14.5 4.7 40 6.6 W 15 19 8 10 1018.8 - 0.0
30/05:00pm 19.8 16.5 6.5 42 6.7 WNW 13 17 7 9 1018.5 - 0.0
30/04:30pm 21.1 17.9 7.0 40 7.2 WNW 13 20 7 11 1018.6 - 0.0
30/04:00pm 22.3 18.4 6.9 37 7.9 WNW 17 22 9 12 1018.6 - 0.0
30/03:30pm 23.0 18.6 5.0 31 9.0 WNW 17 22 9 12 1018.7 - 0.0
30/03:00pm 23.4 19.1 3.4 27 9.7 WNW 15 22 8 12 1019.0 1019.1 0.0
30/02:30pm 23.9 18.8 3.2 26 10.1 NNW 19 26 10 14 1019.1 - 0.0
30/02:00pm 23.6 18.7 4.0 28 9.6 NNW 19 26 10 14 1019.4 - 0.0
30/01:30pm 23.3 18.8 4.3 29 9.4 NW 17 24 9 13 1019.8 - 0.0
30/01:00pm 23.8 18.5 3.2 26 10.0 NNW 20 32 11 17 1020.2 - 0.0
30/12:30pm 23.6 18.7 1.9 24 10.3 NNW 17 26 9 14 1021.0 - 0.0
30/12:00pm 23.9 18.5 2.7 25 10.2 NNW 20 28 11 15 1021.4 1021.4 0.0
30/11:30am 23.6 18.9 5.0 30 9.3 NNW 19 30 10 16 1021.9 - 0.0

Other Formats:

Comma delimited format used in spreadsheet applications
http://www.bom.gov.au/fwo/IDS60801/IDS60801.94814.axf

JavaScript Object Notation format (JSON) in row-major order
http://www.bom.gov.au/fwo/IDS60801/IDS60801.94814.json